Terminal Aerodrome Forecast
Issued by NWS

Home | Current Version | Previous Version | Text Only | Print | Product List | Glossary On
Versions: 1 2 3 4 5 6 7 8 9 10 11 12 13 14 15 16
000
FTUS46 KSEW 270500
TAFBFI
TAF
KBFI 270536Z 2706/2806 14006KT P6SM SCT250
     FM271500 16005KT P6SM OVC025
     FM271900 17008KT P6SM OVC020
     FM272300 17006KT P6SM OVC015=

USA.gov is the U.S. government's official web portal to all federal, state and local government web resources and services.